sensor_id;sensor_type;location;lat;lon;timestamp;temperature;humidity
22940;DHT22;11636;52.086;5.090;2022-12-29T00:00:42;10.20;99.90
22940;DHT22;11636;52.086;5.090;2022-12-29T00:03:15;10.20;99.90
22940;DHT22;11636;52.086;5.090;2022-12-29T00:05:43;10.20;99.90
22940;DHT22;11636;52.086;5.090;2022-12-29T00:08:10;10.20;99.90
22940;DHT22;11636;52.086;5.090;2022-12-29T00:10:44;10.20;99.90
22940;DHT22;11636;52.086;5.090;2022-12-29T00:13:10;10.30;99.90
22940;DHT22;11636;52.086;5.090;2022-12-29T00:16:07;10.30;99.90
22940;DHT22;11636;52.086;5.090;2022-12-29T00:18:34;10.30;99.90
22940;DHT22;11636;52.086;5.090;2022-12-29T00:21:01;10.30;99.90
22940;DHT22;11636;52.086;5.090;2022-12-29T00:23:53;10.30;99.90
22940;DHT22;11636;52.086;5.090;2022-12-29T00:26:38;10.30;99.90
22940;DHT22;11636;52.086;5.090;2022-12-29T00:29:31;10.40;99.90
22940;DHT22;11636;52.086;5.090;2022-12-29T00:32:16;10.40;99.90
22940;DHT22;11636;52.086;5.090;2022-12-29T00:35:11;10.40;99.90
22940;DHT22;11636;52.086;5.090;2022-12-29T00:37:42;10.40;99.90
22940;DHT22;11636;52.086;5.090;2022-12-29T00:40:35;10.50;99.90
22940;DHT22;11636;52.086;5.090;2022-12-29T00:43:21;10.50;99.90
22940;DHT22;11636;52.086;5.090;2022-12-29T00:46:15;10.50;99.90
22940;DHT22;11636;52.086;5.090;2022-12-29T00:48:49;10.50;99.90
22940;DHT22;11636;52.086;5.090;2022-12-29T00:51:34;10.50;99.90
22940;DHT22;11636;52.086;5.090;2022-12-29T00:54:10;10.50;99.90
22940;DHT22;11636;52.086;5.090;2022-12-29T00:56:37;10.50;99.90
22940;DHT22;11636;52.086;5.090;2022-12-29T00:59:06;10.60;99.90
22940;DHT22;11636;52.086;5.090;2022-12-29T01:01:41;10.60;99.90
22940;DHT22;11636;52.086;5.090;2022-12-29T01:04:10;10.60;99.90
22940;DHT22;11636;52.086;5.090;2022-12-29T01:06:38;10.60;99.90
22940;DHT22;11636;52.086;5.090;2022-12-29T01:09:12;10.60;99.90
22940;DHT22;11636;52.086;5.090;2022-12-29T01:12:00;10.60;99.90
22940;DHT22;11636;52.086;5.090;2022-12-29T01:14:35;10.60;99.90
22940;DHT22;11636;52.086;5.090;2022-12-29T01:17:03;10.50;99.90
22940;DHT22;11636;52.086;5.090;2022-12-29T01:19:30;10.50;99.90
22940;DHT22;11636;52.086;5.090;2022-12-29T01:22:09;10.30;99.90
22940;DHT22;11636;52.086;5.090;2022-12-29T01:24:38;10.30;99.90
22940;DHT22;11636;52.086;5.090;2022-12-29T01:27:12;10.20;99.90
22940;DHT22;11636;52.086;5.090;2022-12-29T01:29:39;10.20;99.90
22940;DHT22;11636;52.086;5.090;2022-12-29T01:32:10;10.10;99.90
22940;DHT22;11636;52.086;5.090;2022-12-29T01:34:44;10.10;99.90
22940;DHT22;11636;52.086;5.090;2022-12-29T01:37:17;10.10;99.90
22940;DHT22;11636;52.086;5.090;2022-12-29T01:39:51;10.10;99.90
22940;DHT22;11636;52.086;5.090;2022-12-29T01:42:25;10.10;99.90
22940;DHT22;11636;52.086;5.090;2022-12-29T01:44:54;10.10;99.90
22940;DHT22;11636;52.086;5.090;2022-12-29T01:47:38;10.10;99.90
22940;DHT22;11636;52.086;5.090;2022-12-29T01:50:13;10.00;99.90
22940;DHT22;11636;52.086;5.090;2022-12-29T01:53:04;10.10;99.90
22940;DHT22;11636;52.086;5.090;2022-12-29T01:55:36;10.00;99.90
22940;DHT22;11636;52.086;5.090;2022-12-29T01:58:12;10.00;99.90
22940;DHT22;11636;52.086;5.090;2022-12-29T02:00:42;10.00;99.90
22940;DHT22;11636;52.086;5.090;2022-12-29T02:03:15;10.00;99.90
22940;DHT22;11636;52.086;5.090;2022-12-29T02:06:41;10.00;99.90
22940;DHT22;11636;52.086;5.090;2022-12-29T02:08:46;10.00;99.90
22940;DHT22;11636;52.086;5.090;2022-12-29T02:11:22;10.00;99.90
22940;DHT22;11636;52.086;5.090;2022-12-29T02:13:56;10.10;99.90
22940;DHT22;11636;52.086;5.090;2022-12-29T02:31:31;10.20;99.90
22940;DHT22;11636;52.086;5.090;2022-12-29T02:34:22;10.20;99.90
22940;DHT22;11636;52.086;5.090;2022-12-29T02:42:51;10.30;99.90
22940;DHT22;11636;52.086;5.090;2022-12-29T02:45:54;10.20;99.90
22940;DHT22;11636;52.086;5.090;2022-12-29T02:48:37;10.20;99.90
22940;DHT22;11636;52.086;5.090;2022-12-29T02:51:31;10.30;99.90
22940;DHT22;11636;52.086;5.090;2022-12-29T02:54:00;10.30;99.90
22940;DHT22;11636;52.086;5.090;2022-12-29T02:56:53;10.20;99.90
22940;DHT22;11636;52.086;5.090;2022-12-29T02:59:20;10.20;99.90
22940;DHT22;11636;52.086;5.090;2022-12-29T03:10:28;10.20;99.90
22940;DHT22;11636;52.086;5.090;2022-12-29T03:13:02;10.20;99.90
22940;DHT22;11636;52.086;5.090;2022-12-29T03:16:02;10.10;99.90
22940;DHT22;11636;52.086;5.090;2022-12-29T03:18:35;10.10;99.90
22940;DHT22;11636;52.086;5.090;2022-12-29T03:21:20;10.00;99.90
22940;DHT22;11636;52.086;5.090;2022-12-29T03:24:18;10.00;99.90
22940;DHT22;11636;52.086;5.090;2022-12-29T03:26:48;9.90;99.90
22940;DHT22;11636;52.086;5.090;2022-12-29T03:29:19;9.90;99.90
22940;DHT22;11636;52.086;5.090;2022-12-29T03:31:54;9.90;99.90
22940;DHT22;11636;52.086;5.090;2022-12-29T03:34:25;9.90;99.90
22940;DHT22;11636;52.086;5.090;2022-12-29T03:37:11;9.90;99.90
22940;DHT22;11636;52.086;5.090;2022-12-29T03:39:45;9.90;99.90
22940;DHT22;11636;52.086;5.090;2022-12-29T03:42:19;10.00;99.90
22940;DHT22;11636;52.086;5.090;2022-12-29T03:44:55;9.90;99.90
22940;DHT22;11636;52.086;5.090;2022-12-29T03:47:29;9.90;99.90
22940;DHT22;11636;52.086;5.090;2022-12-29T03:50:02;9.90;99.90
22940;DHT22;11636;52.086;5.090;2022-12-29T03:52:29;9.80;99.90
22940;DHT22;11636;52.086;5.090;2022-12-29T03:55:02;9.80;99.90
22940;DHT22;11636;52.086;5.090;2022-12-29T03:57:29;9.70;99.90
22940;DHT22;11636;52.086;5.090;2022-12-29T03:59:56;9.60;99.90
22940;DHT22;11636;52.086;5.090;2022-12-29T04:02:29;9.60;99.90
22940;DHT22;11636;52.086;5.090;2022-12-29T04:04:56;9.60;99.90
22940;DHT22;11636;52.086;5.090;2022-12-29T04:07:23;9.60;99.90
22940;DHT22;11636;52.086;5.090;2022-12-29T04:09:57;9.50;99.90
22940;DHT22;11636;52.086;5.090;2022-12-29T04:12:24;9.60;99.90
22940;DHT22;11636;52.086;5.090;2022-12-29T04:14:51;9.50;99.90
22940;DHT22;11636;52.086;5.090;2022-12-29T04:17:24;9.60;99.90
22940;DHT22;11636;52.086;5.090;2022-12-29T04:19:51;9.60;99.90
22940;DHT22;11636;52.086;5.090;2022-12-29T04:22:18;9.70;99.90
22940;DHT22;11636;52.086;5.090;2022-12-29T04:24:51;9.70;99.90
22940;DHT22;11636;52.086;5.090;2022-12-29T04:27:18;9.70;99.90
22940;DHT22;11636;52.086;5.090;2022-12-29T04:29:51;9.80;99.90
22940;DHT22;11636;52.086;5.090;2022-12-29T04:32:24;9.90;99.90
22940;DHT22;11636;52.086;5.090;2022-12-29T04:34:51;9.90;99.90
22940;DHT22;11636;52.086;5.090;2022-12-29T04:37:24;10.00;99.90
22940;DHT22;11636;52.086;5.090;2022-12-29T04:39:51;10.00;99.90
22940;DHT22;11636;52.086;5.090;2022-12-29T04:42:30;10.00;99.90
22940;DHT22;11636;52.086;5.090;2022-12-29T04:44:56;10.00;99.90
22940;DHT22;11636;52.086;5.090;2022-12-29T04:47:42;9.90;99.90
22940;DHT22;11636;52.086;5.090;2022-12-29T04:50:09;9.80;99.90
22940;DHT22;11636;52.086;5.090;2022-12-29T04:52:36;9.60;99.90
22940;DHT22;11636;52.086;5.090;2022-12-29T04:55:09;9.50;99.90
22940;DHT22;11636;52.086;5.090;2022-12-29T04:57:36;9.40;99.90
22940;DHT22;11636;52.086;5.090;2022-12-29T05:00:04;9.30;99.90
22940;DHT22;11636;52.086;5.090;2022-12-29T05:02:44;9.30;99.90
22940;DHT22;11636;52.086;5.090;2022-12-29T05:05:12;9.20;99.90
22940;DHT22;11636;52.086;5.090;2022-12-29T05:07:45;9.20;99.90
22940;DHT22;11636;52.086;5.090;2022-12-29T05:10:18;9.20;99.90
22940;DHT22;11636;52.086;5.090;2022-12-29T05:12:45;9.20;99.90
22940;DHT22;11636;52.086;5.090;2022-12-29T05:15:13;9.30;99.90
22940;DHT22;11636;52.086;5.090;2022-12-29T05:17:46;9.30;99.90
22940;DHT22;11636;52.086;5.090;2022-12-29T05:20:13;9.40;99.90
22940;DHT22;11636;52.086;5.090;2022-12-29T05:22:45;9.40;99.90
22940;DHT22;11636;52.086;5.090;2022-12-29T05:25:19;9.40;99.90
22940;DHT22;11636;52.086;5.090;2022-12-29T05:27:52;9.50;99.90
22940;DHT22;11636;52.086;5.090;2022-12-29T05:30:19;9.50;99.90
22940;DHT22;11636;52.086;5.090;2022-12-29T05:32:46;9.40;99.90
22940;DHT22;11636;52.086;5.090;2022-12-29T05:35:19;9.40;99.90
22940;DHT22;11636;52.086;5.090;2022-12-29T05:37:46;9.30;99.90
22940;DHT22;11636;52.086;5.090;2022-12-29T05:40:19;9.30;99.90
22940;DHT22;11636;52.086;5.090;2022-12-29T05:42:46;9.30;99.90
22940;DHT22;11636;52.086;5.090;2022-12-29T05:45:13;9.30;99.90
22940;DHT22;11636;52.086;5.090;2022-12-29T05:47:47;9.30;99.90
22940;DHT22;11636;52.086;5.090;2022-12-29T05:50:14;9.20;99.90
22940;DHT22;11636;52.086;5.090;2022-12-29T05:52:45;9.30;99.90
22940;DHT22;11636;52.086;5.090;2022-12-29T05:55:20;9.30;99.90
22940;DHT22;11636;52.086;5.090;2022-12-29T05:57:47;9.30;99.90
22940;DHT22;11636;52.086;5.090;2022-12-29T06:00:14;9.40;99.90
22940;DHT22;11636;52.086;5.090;2022-12-29T06:02:47;9.30;99.90
22940;DHT22;11636;52.086;5.090;2022-12-29T06:05:15;9.20;99.90
22940;DHT22;11636;52.086;5.090;2022-12-29T06:07:42;9.10;99.90
22940;DHT22;11636;52.086;5.090;2022-12-29T06:10:15;9.10;99.90
22940;DHT22;11636;52.086;5.090;2022-12-29T06:12:49;9.10;99.90
22940;DHT22;11636;52.086;5.090;2022-12-29T06:15:22;9.00;99.90
22940;DHT22;11636;52.086;5.090;2022-12-29T06:17:49;9.00;99.90
22940;DHT22;11636;52.086;5.090;2022-12-29T06:20:16;9.00;99.90
22940;DHT22;11636;52.086;5.090;2022-12-29T06:22:49;9.00;99.90
22940;DHT22;11636;52.086;5.090;2022-12-29T06:25:16;9.00;99.90
22940;DHT22;11636;52.086;5.090;2022-12-29T06:27:48;9.00;99.90
22940;DHT22;11636;52.086;5.090;2022-12-29T06:30:21;8.90;99.90
22940;DHT22;11636;52.086;5.090;2022-12-29T06:32:52;8.90;99.90
22940;DHT22;11636;52.086;5.090;2022-12-29T06:35:27;8.90;99.90
22940;DHT22;11636;52.086;5.090;2022-12-29T06:38:01;8.80;99.90
22940;DHT22;11636;52.086;5.090;2022-12-29T06:40:28;8.80;99.90
22940;DHT22;11636;52.086;5.090;2022-12-29T06:42:55;8.80;99.90
22940;DHT22;11636;52.086;5.090;2022-12-29T06:45:28;8.80;99.90
22940;DHT22;11636;52.086;5.090;2022-12-29T06:48:00;8.80;99.90
22940;DHT22;11636;52.086;5.090;2022-12-29T06:50:27;8.90;99.90
22940;DHT22;11636;52.086;5.090;2022-12-29T06:53:00;9.00;99.90
22940;DHT22;11636;52.086;5.090;2022-12-29T06:55:27;9.00;99.90
22940;DHT22;11636;52.086;5.090;2022-12-29T06:57:58;9.00;99.90
22940;DHT22;11636;52.086;5.090;2022-12-29T07:00:31;9.10;99.90
22940;DHT22;11636;52.086;5.090;2022-12-29T07:02:58;9.10;99.90
22940;DHT22;11636;52.086;5.090;2022-12-29T07:05:32;9.00;99.90
22940;DHT22;11636;52.086;5.090;2022-12-29T07:07:59;8.90;99.90
22940;DHT22;11636;52.086;5.090;2022-12-29T07:10:33;8.80;99.90
22940;DHT22;11636;52.086;5.090;2022-12-29T07:13:07;8.70;99.90
22940;DHT22;11636;52.086;5.090;2022-12-29T07:15:36;8.60;99.90
22940;DHT22;11636;52.086;5.090;2022-12-29T07:18:04;8.50;99.90
22940;DHT22;11636;52.086;5.090;2022-12-29T07:20:37;8.40;99.90
22940;DHT22;11636;52.086;5.090;2022-12-29T07:23:04;8.40;99.90
22940;DHT22;11636;52.086;5.090;2022-12-29T07:25:37;8.40;99.90
22940;DHT22;11636;52.086;5.090;2022-12-29T07:28:04;8.40;99.90
22940;DHT22;11636;52.086;5.090;2022-12-29T07:30:37;8.40;99.90
22940;DHT22;11636;52.086;5.090;2022-12-29T07:33:13;8.50;99.90
22940;DHT22;11636;52.086;5.090;2022-12-29T07:35:40;8.50;99.90
22940;DHT22;11636;52.086;5.090;2022-12-29T07:38:08;8.50;99.90
22940;DHT22;11636;52.086;5.090;2022-12-29T07:40:42;8.60;99.90
22940;DHT22;11636;52.086;5.090;2022-12-29T07:43:09;8.70;99.90
22940;DHT22;11636;52.086;5.090;2022-12-29T07:45:36;8.80;99.90
22940;DHT22;11636;52.086;5.090;2022-12-29T07:48:09;8.80;99.90
22940;DHT22;11636;52.086;5.090;2022-12-29T07:50:43;8.90;99.90
22940;DHT22;11636;52.086;5.090;2022-12-29T07:53:16;8.90;99.90
22940;DHT22;11636;52.086;5.090;2022-12-29T07:55:50;8.90;99.90
22940;DHT22;11636;52.086;5.090;2022-12-29T07:58:17;9.00;99.90
22940;DHT22;11636;52.086;5.090;2022-12-29T08:00:45;9.00;99.90
22940;DHT22;11636;52.086;5.090;2022-12-29T08:03:19;9.00;99.90
22940;DHT22;11636;52.086;5.090;2022-12-29T08:05:46;9.00;99.90
22940;DHT22;11636;52.086;5.090;2022-12-29T08:08:13;9.10;99.90
22940;DHT22;11636;52.086;5.090;2022-12-29T08:10:46;9.10;99.90
22940;DHT22;11636;52.086;5.090;2022-12-29T08:13:14;9.10;99.90
22940;DHT22;11636;52.086;5.090;2022-12-29T08:15:40;9.10;99.90
22940;DHT22;11636;52.086;5.090;2022-12-29T08:18:13;9.10;99.90
22940;DHT22;11636;52.086;5.090;2022-12-29T08:20:47;9.20;99.90
22940;DHT22;11636;52.086;5.090;2022-12-29T08:23:21;9.20;99.90
22940;DHT22;11636;52.086;5.090;2022-12-29T08:26:04;9.20;99.90
22940;DHT22;11636;52.086;5.090;2022-12-29T08:28:31;9.30;99.90
22940;DHT22;11636;52.086;5.090;2022-12-29T08:31:11;9.30;99.90
22940;DHT22;11636;52.086;5.090;2022-12-29T08:33:38;9.30;99.90
22940;DHT22;11636;52.086;5.090;2022-12-29T08:36:06;9.40;99.90
22940;DHT22;11636;52.086;5.090;2022-12-29T08:38:41;9.30;99.90
22940;DHT22;11636;52.086;5.090;2022-12-29T08:41:08;9.30;99.90
22940;DHT22;11636;52.086;5.090;2022-12-29T08:43:34;9.30;99.90
22940;DHT22;11636;52.086;5.090;2022-12-29T08:46:07;9.30;99.90
22940;DHT22;11636;52.086;5.090;2022-12-29T08:48:34;9.30;99.90
22940;DHT22;11636;52.086;5.090;2022-12-29T08:51:01;9.30;99.90
22940;DHT22;11636;52.086;5.090;2022-12-29T08:53:35;9.20;99.90
22940;DHT22;11636;52.086;5.090;2022-12-29T08:56:02;9.20;99.90
22940;DHT22;11636;52.086;5.090;2022-12-29T08:58:32;9.20;99.90
22940;DHT22;11636;52.086;5.090;2022-12-29T09:01:05;9.20;99.90
22940;DHT22;11636;52.086;5.090;2022-12-29T09:03:32;9.30;99.90
22940;DHT22;11636;52.086;5.090;2022-12-29T09:06:25;9.30;99.90
22940;DHT22;11636;52.086;5.090;2022-12-29T09:08:54;9.30;99.90
22940;DHT22;11636;52.086;5.090;2022-12-29T09:11:28;9.30;99.90
22940;DHT22;11636;52.086;5.090;2022-12-29T09:14:01;9.30;99.90
22940;DHT22;11636;52.086;5.090;2022-12-29T09:16:35;9.20;99.90
22940;DHT22;11636;52.086;5.090;2022-12-29T09:19:02;9.20;99.90
22940;DHT22;11636;52.086;5.090;2022-12-29T09:21:29;9.10;99.90
22940;DHT22;11636;52.086;5.090;2022-12-29T09:24:03;9.00;99.90
22940;DHT22;11636;52.086;5.090;2022-12-29T09:26:37;9.00;99.90
22940;DHT22;11636;52.086;5.090;2022-12-29T09:29:12;8.90;99.90
22940;DHT22;11636;52.086;5.090;2022-12-29T09:31:39;8.90;99.90
22940;DHT22;11636;52.086;5.090;2022-12-29T09:34:06;8.90;99.90
22940;DHT22;11636;52.086;5.090;2022-12-29T09:36:40;8.80;99.90
22940;DHT22;11636;52.086;5.090;2022-12-29T09:39:07;8.80;99.90
22940;DHT22;11636;52.086;5.090;2022-12-29T09:47:29;8.70;99.90
22940;DHT22;11636;52.086;5.090;2022-12-29T09:50:00;8.60;99.90
22940;DHT22;11636;52.086;5.090;2022-12-29T09:52:32;8.60;99.90
22940;DHT22;11636;52.086;5.090;2022-12-29T09:55:12;8.60;99.90
22940;DHT22;11636;52.086;5.090;2022-12-29T09:57:57;8.60;99.90
22940;DHT22;11636;52.086;5.090;2022-12-29T10:00:56;8.70;99.90
22940;DHT22;11636;52.086;5.090;2022-12-29T10:03:50;8.70;99.90
22940;DHT22;11636;52.086;5.090;2022-12-29T10:15:14;8.70;99.90
22940;DHT22;11636;52.086;5.090;2022-12-29T10:23:29;8.80;99.90
22940;DHT22;11636;52.086;5.090;2022-12-29T10:25:59;8.80;99.90
22940;DHT22;11636;52.086;5.090;2022-12-29T10:31:28;8.80;99.90
22940;DHT22;11636;52.086;5.090;2022-12-29T10:34:10;8.80;99.90
22940;DHT22;11636;52.086;5.090;2022-12-29T10:36:43;8.90;99.90
22940;DHT22;11636;52.086;5.090;2022-12-29T10:39:30;8.90;99.90
22940;DHT22;11636;52.086;5.090;2022-12-29T10:42:33;8.90;99.90
22940;DHT22;11636;52.086;5.090;2022-12-29T10:45:13;9.00;99.90
22940;DHT22;11636;52.086;5.090;2022-12-29T10:47:58;9.00;99.90
22940;DHT22;11636;52.086;5.090;2022-12-29T10:50:33;9.00;99.90
22940;DHT22;11636;52.086;5.090;2022-12-29T10:53:04;9.10;99.90
22940;DHT22;11636;52.086;5.090;2022-12-29T10:55:36;9.00;99.90
22940;DHT22;11636;52.086;5.090;2022-12-29T10:58:13;9.00;99.90
22940;DHT22;11636;52.086;5.090;2022-12-29T11:00:42;9.00;99.90
22940;DHT22;11636;52.086;5.090;2022-12-29T11:03:40;9.00;99.90
22940;DHT22;11636;52.086;5.090;2022-12-29T11:06:27;9.10;99.90
22940;DHT22;11636;52.086;5.090;2022-12-29T11:08:59;9.10;99.90
22940;DHT22;11636;52.086;5.090;2022-12-29T11:11:35;9.10;99.90
22940;DHT22;11636;52.086;5.090;2022-12-29T11:14:14;9.20;99.90
22940;DHT22;11636;52.086;5.090;2022-12-29T11:17:01;9.20;99.90
22940;DHT22;11636;52.086;5.090;2022-12-29T11:19:30;9.30;99.90
22940;DHT22;11636;52.086;5.090;2022-12-29T11:22:28;9.50;99.90
22940;DHT22;11636;52.086;5.090;2022-12-29T11:25:10;9.60;99.90
22940;DHT22;11636;52.086;5.090;2022-12-29T11:27:38;9.70;99.90
22940;DHT22;11636;52.086;5.090;2022-12-29T11:30:24;9.60;99.90
22940;DHT22;11636;52.086;5.090;2022-12-29T11:32:52;9.70;99.90
22940;DHT22;11636;52.086;5.090;2022-12-29T11:35:36;9.90;99.90
22940;DHT22;11636;52.086;5.090;2022-12-29T11:38:21;9.90;99.90
22940;DHT22;11636;52.086;5.090;2022-12-29T11:40:50;9.90;99.90
22940;DHT22;11636;52.086;5.090;2022-12-29T11:43:37;9.90;99.90
22940;DHT22;11636;52.086;5.090;2022-12-29T11:46:05;9.90;99.90
22940;DHT22;11636;52.086;5.090;2022-12-29T11:48:40;9.90;99.90
22940;DHT22;11636;52.086;5.090;2022-12-29T11:51:09;9.70;99.90
22940;DHT22;11636;52.086;5.090;2022-12-29T11:53:47;9.70;99.90
22940;DHT22;11636;52.086;5.090;2022-12-29T11:56:40;9.60;99.90
22940;DHT22;11636;52.086;5.090;2022-12-29T12:05:35;9.50;99.90
22940;DHT22;11636;52.086;5.090;2022-12-29T12:11:34;9.40;99.90
22940;DHT22;11636;52.086;5.090;2022-12-29T12:16:50;9.30;99.90
22940;DHT22;11636;52.086;5.090;2022-12-29T12:25:25;9.30;99.90
22940;DHT22;11636;52.086;5.090;2022-12-29T12:30:50;9.20;99.90
22940;DHT22;11636;52.086;5.090;2022-12-29T12:33:38;9.20;99.90
22940;DHT22;11636;52.086;5.090;2022-12-29T12:36:27;9.30;99.90
22940;DHT22;11636;52.086;5.090;2022-12-29T12:53:14;9.70;99.90
22940;DHT22;11636;52.086;5.090;2022-12-29T12:58:48;9.70;99.90
22940;DHT22;11636;52.086;5.090;2022-12-29T13:02:26;9.80;99.90
22940;DHT22;11636;52.086;5.090;2022-12-29T13:05:09;9.80;99.90
22940;DHT22;11636;52.086;5.090;2022-12-29T13:11:02;9.80;99.90
22940;DHT22;11636;52.086;5.090;2022-12-29T13:16:39;9.80;99.90
22940;DHT22;11636;52.086;5.090;2022-12-29T13:19:14;9.80;99.90
22940;DHT22;11636;52.086;5.090;2022-12-29T13:22:18;9.70;99.90
22940;DHT22;11636;52.086;5.090;2022-12-29T13:30:21;9.70;99.90
22940;DHT22;11636;52.086;5.090;2022-12-29T13:33:30;9.70;99.90
22940;DHT22;11636;52.086;5.090;2022-12-29T13:36:14;9.70;99.90
22940;DHT22;11636;52.086;5.090;2022-12-29T13:38:46;9.70;99.90
22940;DHT22;11636;52.086;5.090;2022-12-29T13:41:32;9.70;99.90
22940;DHT22;11636;52.086;5.090;2022-12-29T13:44:03;9.70;99.90
22940;DHT22;11636;52.086;5.090;2022-12-29T13:46:41;9.70;99.90
22940;DHT22;11636;52.086;5.090;2022-12-29T13:54:26;9.60;99.90
22940;DHT22;11636;52.086;5.090;2022-12-29T14:05:37;8.90;99.90
22940;DHT22;11636;52.086;5.090;2022-12-29T14:08:17;8.70;99.90
22940;DHT22;11636;52.086;5.090;2022-12-29T14:10:51;8.60;99.90
22940;DHT22;11636;52.086;5.090;2022-12-29T14:13:23;8.60;99.90
22940;DHT22;11636;52.086;5.090;2022-12-29T14:15:58;8.50;99.90
22940;DHT22;11636;52.086;5.090;2022-12-29T14:18:34;8.50;99.90
22940;DHT22;11636;52.086;5.090;2022-12-29T14:21:18;8.50;99.90
22940;DHT22;11636;52.086;5.090;2022-12-29T14:23:47;8.40;99.90
22940;DHT22;11636;52.086;5.090;2022-12-29T14:26:33;8.50;99.90
22940;DHT22;11636;52.086;5.090;2022-12-29T14:31:58;8.40;99.90
22940;DHT22;11636;52.086;5.090;2022-12-29T14:34:38;8.40;99.90
22940;DHT22;11636;52.086;5.090;2022-12-29T14:37:29;8.40;99.90
22940;DHT22;11636;52.086;5.090;2022-12-29T14:42:46;8.40;99.90
22940;DHT22;11636;52.086;5.090;2022-12-29T14:45:25;8.50;99.90
22940;DHT22;11636;52.086;5.090;2022-12-29T14:47:53;8.50;99.90
22940;DHT22;11636;52.086;5.090;2022-12-29T14:50:44;8.50;99.90
22940;DHT22;11636;52.086;5.090;2022-12-29T14:56:17;8.60;99.90
22940;DHT22;11636;52.086;5.090;2022-12-29T15:01:42;8.60;99.90
22940;DHT22;11636;52.086;5.090;2022-12-29T15:04:25;8.60;99.90
22940;DHT22;11636;52.086;5.090;2022-12-29T15:06:59;8.60;99.90
22940;DHT22;11636;52.086;5.090;2022-12-29T15:09:37;8.60;99.90
22940;DHT22;11636;52.086;5.090;2022-12-29T15:12:19;8.60;99.90
22940;DHT22;11636;52.086;5.090;2022-12-29T15:17:33;8.70;99.90
22940;DHT22;11636;52.086;5.090;2022-12-29T15:20:25;8.70;99.90
22940;DHT22;11636;52.086;5.090;2022-12-29T15:23:13;8.70;99.90
22940;DHT22;11636;52.086;5.090;2022-12-29T15:28:28;8.70;99.90
22940;DHT22;11636;52.086;5.090;2022-12-29T15:31:23;8.70;99.90
22940;DHT22;11636;52.086;5.090;2022-12-29T15:34:10;8.80;99.90
22940;DHT22;11636;52.086;5.090;2022-12-29T15:36:44;8.80;99.90
22940;DHT22;11636;52.086;5.090;2022-12-29T15:39:28;8.80;99.90
22940;DHT22;11636;52.086;5.090;2022-12-29T15:44:42;8.80;99.90
22940;DHT22;11636;52.086;5.090;2022-12-29T15:47:30;8.80;99.90
22940;DHT22;11636;52.086;5.090;2022-12-29T15:50:14;8.80;99.90
22940;DHT22;11636;52.086;5.090;2022-12-29T15:52:49;8.80;99.90
22940;DHT22;11636;52.086;5.090;2022-12-29T15:55:25;8.80;99.90
22940;DHT22;11636;52.086;5.090;2022-12-29T15:58:03;8.70;99.90
22940;DHT22;11636;52.086;5.090;2022-12-29T16:00:36;8.80;99.90
22940;DHT22;11636;52.086;5.090;2022-12-29T16:03:12;8.80;99.90
22940;DHT22;11636;52.086;5.090;2022-12-29T16:06:44;8.80;99.90
22940;DHT22;11636;52.086;5.090;2022-12-29T16:08:56;8.80;99.90
22940;DHT22;11636;52.086;5.090;2022-12-29T16:11:38;8.70;99.90
22940;DHT22;11636;52.086;5.090;2022-12-29T16:14:09;8.70;99.90
22940;DHT22;11636;52.086;5.090;2022-12-29T16:16:44;8.70;99.90
22940;DHT22;11636;52.086;5.090;2022-12-29T16:19:24;8.70;99.90
22940;DHT22;11636;52.086;5.090;2022-12-29T16:22:02;8.60;99.90
22940;DHT22;11636;52.086;5.090;2022-12-29T16:24:31;8.60;99.90
22940;DHT22;11636;52.086;5.090;2022-12-29T16:27:35;8.50;99.90
22940;DHT22;11636;52.086;5.090;2022-12-29T16:30:06;8.50;99.90
22940;DHT22;11636;52.086;5.090;2022-12-29T16:32:50;8.40;99.90
22940;DHT22;11636;52.086;5.090;2022-12-29T16:38:30;8.30;99.90
22940;DHT22;11636;52.086;5.090;2022-12-29T16:41:04;8.20;99.90
22940;DHT22;11636;52.086;5.090;2022-12-29T16:43:34;8.20;99.90
22940;DHT22;11636;52.086;5.090;2022-12-29T16:48:48;8.10;99.90
22940;DHT22;11636;52.086;5.090;2022-12-29T16:51:34;8.00;99.90
22940;DHT22;11636;52.086;5.090;2022-12-29T16:54:04;8.00;99.90
22940;DHT22;11636;52.086;5.090;2022-12-29T16:56:43;8.00;99.90
22940;DHT22;11636;52.086;5.090;2022-12-29T17:02:00;7.90;99.90
22940;DHT22;11636;52.086;5.090;2022-12-29T17:04:29;7.90;99.90
22940;DHT22;11636;52.086;5.090;2022-12-29T17:07:16;7.90;99.90
22940;DHT22;11636;52.086;5.090;2022-12-29T17:09:51;7.90;99.90
22940;DHT22;11636;52.086;5.090;2022-12-29T17:12:28;7.80;99.90
22940;DHT22;11636;52.086;5.090;2022-12-29T17:15:03;7.80;99.90
22940;DHT22;11636;52.086;5.090;2022-12-29T17:17:46;7.80;99.90
22940;DHT22;11636;52.086;5.090;2022-12-29T17:20:29;7.80;99.90
22940;DHT22;11636;52.086;5.090;2022-12-29T17:23:13;7.80;99.90
22940;DHT22;11636;52.086;5.090;2022-12-29T17:25:48;7.80;99.90
22940;DHT22;11636;52.086;5.090;2022-12-29T17:28:27;7.70;99.90
22940;DHT22;11636;52.086;5.090;2022-12-29T17:31:05;7.70;99.90
22940;DHT22;11636;52.086;5.090;2022-12-29T17:33:37;7.70;99.90
22940;DHT22;11636;52.086;5.090;2022-12-29T17:36:10;7.60;99.90
22940;DHT22;11636;52.086;5.090;2022-12-29T17:38:37;7.60;99.90
22940;DHT22;11636;52.086;5.090;2022-12-29T17:41:13;7.60;99.90
22940;DHT22;11636;52.086;5.090;2022-12-29T17:43:46;7.60;99.90
22940;DHT22;11636;52.086;5.090;2022-12-29T17:46:13;7.50;99.90
22940;DHT22;11636;52.086;5.090;2022-12-29T17:48:48;7.50;99.90
22940;DHT22;11636;52.086;5.090;2022-12-29T17:51:28;7.50;99.90
22940;DHT22;11636;52.086;5.090;2022-12-29T17:53:55;7.40;99.90
22940;DHT22;11636;52.086;5.090;2022-12-29T17:56:31;7.40;99.90
22940;DHT22;11636;52.086;5.090;2022-12-29T17:58:57;7.40;99.90
22940;DHT22;11636;52.086;5.090;2022-12-29T18:01:25;7.40;99.90
22940;DHT22;11636;52.086;5.090;2022-12-29T18:04:05;7.40;99.90
22940;DHT22;11636;52.086;5.090;2022-12-29T18:06:39;7.40;99.90
22940;DHT22;11636;52.086;5.090;2022-12-29T18:09:09;7.40;99.90
22940;DHT22;11636;52.086;5.090;2022-12-29T18:11:43;7.40;99.90
22940;DHT22;11636;52.086;5.090;2022-12-29T18:14:15;7.40;99.90
22940;DHT22;11636;52.086;5.090;2022-12-29T18:16:48;7.40;99.90
22940;DHT22;11636;52.086;5.090;2022-12-29T18:19:16;7.40;99.90
22940;DHT22;11636;52.086;5.090;2022-12-29T18:21:49;7.30;99.90
22940;DHT22;11636;52.086;5.090;2022-12-29T18:24:16;7.30;99.90
22940;DHT22;11636;52.086;5.090;2022-12-29T18:26:49;7.30;99.90
22940;DHT22;11636;52.086;5.090;2022-12-29T18:29:22;7.30;99.90
22940;DHT22;11636;52.086;5.090;2022-12-29T18:31:49;7.30;99.90
22940;DHT22;11636;52.086;5.090;2022-12-29T18:34:23;7.30;99.90
22940;DHT22;11636;52.086;5.090;2022-12-29T18:36:56;7.30;99.90
22940;DHT22;11636;52.086;5.090;2022-12-29T18:39:32;7.30;99.90
22940;DHT22;11636;52.086;5.090;2022-12-29T18:42:06;7.30;99.90
22940;DHT22;11636;52.086;5.090;2022-12-29T18:44:43;7.30;99.90
22940;DHT22;11636;52.086;5.090;2022-12-29T18:47:11;7.30;99.90
22940;DHT22;11636;52.086;5.090;2022-12-29T18:49:38;7.30;99.90
22940;DHT22;11636;52.086;5.090;2022-12-29T18:52:12;7.20;99.90
22940;DHT22;11636;52.086;5.090;2022-12-29T18:54:45;7.20;99.90
22940;DHT22;11636;52.086;5.090;2022-12-29T18:57:13;7.20;99.90